Time;durP1;ratioP1;P1;durP2;ratioP2;P2;SDS_P1;SDS_P2;PMS_P1;PMS_P2;Temp;Humidity;BMP_temperature;BMP_pressure;BME280_temperature;BME280_humidity;BME280_pressure;Samples;Min_cycle;Max_cycle;Signal;HPM_P1;HPM_P2
2021/06/04 00:01:34;;;;;;;5.93;5.43;;;17.80;48.60;;;;;;5056334;28;21035;-73
2021/06/04 00:04:10;;;;;;;6.00;4.20;;;17.80;48.70;;;;;;5049652;28;21047;-73
2021/06/04 00:06:44;;;;;;;5.23;4.77;;;17.90;48.60;;;;;;5051284;28;20452;-73
2021/06/04 00:09:21;;;;;;;4.87;4.37;;;17.90;48.50;;;;;;5050357;28;20967;-73
2021/06/04 00:11:59;;;;;;;4.53;4.23;;;17.80;48.60;;;;;;5058830;28;20480;-76
2021/06/04 00:14:37;;;;;;;5.20;4.80;;;17.80;48.70;;;;;;5044742;28;20453;-73
2021/06/04 00:17:16;;;;;;;4.63;4.23;;;17.80;48.60;;;;;;5052133;28;20917;-73
2021/06/04 00:19:51;;;;;;;4.50;4.20;;;17.70;48.50;;;;;;5056234;28;20621;-73
2021/06/04 00:22:31;;;;;;;5.40;4.90;;;17.70;48.60;;;;;;5056869;28;20432;-75
2021/06/04 00:25:07;;;;;;;4.77;4.37;;;17.80;48.50;;;;;;5053010;28;20824;-76
2021/06/04 00:27:42;;;;;;;4.77;4.40;;;17.70;48.40;;;;;;5041914;28;20477;-74
2021/06/04 00:30:18;;;;;;;3.97;3.67;;;17.60;48.50;;;;;;5051463;28;20469;-72
2021/06/04 00:32:54;;;;;;;4.57;4.17;;;17.60;48.80;;;;;;5050472;28;20436;-74
2021/06/04 00:35:29;;;;;;;5.40;4.40;;;17.60;48.90;;;;;;5044539;28;20528;-76
2021/06/04 00:38:04;;;;;;;4.77;4.40;;;17.70;48.90;;;;;;5054093;28;20889;-75
2021/06/04 00:40:46;;;;;;;6.57;4.73;;;17.50;48.60;;;;;;5051404;28;20994;-74
2021/06/04 00:43:22;;;;;;;5.23;4.77;;;17.40;48.80;;;;;;5042758;28;20481;-74
2021/06/04 00:46:00;;;;;;;4.63;4.23;;;17.30;48.90;;;;;;5052432;28;20676;-75
2021/06/04 00:48:41;;;;;;;4.60;4.30;;;17.20;48.80;;;;;;5051898;28;20460;-74
2021/06/04 00:51:20;;;;;;;6.80;4.47;;;17.10;48.70;;;;;;5057206;28;20445;-73
2021/06/04 00:53:56;;;;;;;4.70;4.40;;;17.10;48.70;;;;;;5046256;28;20442;-74
2021/06/04 00:56:33;;;;;;;4.60;4.20;;;17.00;48.80;;;;;;5037714;28;20453;-74
2021/06/04 00:59:09;;;;;;;4.80;4.30;;;17.00;48.80;;;;;;5054043;28;20549;-75
2021/06/04 01:01:44;;;;;;;4.90;4.50;;;16.90;48.70;;;;;;5051210;28;20774;-76
2021/06/04 01:04:24;;;;;;;4.97;4.50;;;16.90;48.90;;;;;;5043261;28;20524;-72
2021/06/04 01:07:03;;;;;;;5.03;4.63;;;16.90;48.90;;;;;;5050871;28;20461;-73
2021/06/04 01:10:02;;;;;;;4.80;4.50;;;16.80;49.00;;;;;;5053511;28;20811;-73
2021/06/04 01:12:58;;;;;;;4.57;4.20;;;16.80;49.00;;;;;;5040863;28;20445;-72
2021/06/04 01:15:40;;;;;;;4.67;4.37;;;16.80;49.20;;;;;;5045488;28;20457;-71
2021/06/04 01:18:21;;;;;;;4.63;4.33;;;16.80;49.30;;;;;;5040441;28;20826;-79
2021/06/04 01:20:59;;;;;;;5.20;4.80;;;16.70;49.30;;;;;;5049448;28;20449;-73
2021/06/04 01:23:53;;;;;;;4.67;4.30;;;16.60;49.50;;;;;;5049793;28;20458;-78
2021/06/04 01:26:35;;;;;;;4.80;4.40;;;16.60;49.70;;;;;;5050189;28;20563;-77
2021/06/04 01:29:13;;;;;;;5.43;4.93;;;16.60;49.60;;;;;;5044559;28;20544;-77
2021/06/04 01:31:52;;;;;;;5.80;4.63;;;16.60;49.70;;;;;;5045667;28;20544;-83
2021/06/04 01:34:31;;;;;;;5.40;4.90;;;16.70;49.90;;;;;;5042971;28;20454;-72
2021/06/04 01:37:11;;;;;;;5.67;5.27;;;16.50;49.90;;;;;;5045274;28;21012;-75
2021/06/04 01:39:49;;;;;;;5.90;5.40;;;16.40;50.10;;;;;;5052205;28;20544;-72
2021/06/04 01:42:29;;;;;;;5.50;5.00;;;16.40;50.30;;;;;;5040633;28;20453;-72
2021/06/04 01:45:10;;;;;;;5.70;4.97;;;16.40;50.40;;;;;;5056323;28;20932;-72
2021/06/04 01:47:48;;;;;;;5.40;5.00;;;16.40;50.50;;;;;;5047034;28;20944;-72
2021/06/04 01:50:31;;;;;;;5.67;5.27;;;16.30;50.50;;;;;;5053044;28;20563;-74
2021/06/04 01:53:13;;;;;;;8.30;5.37;;;16.40;50.50;;;;;;5047226;28;20495;-74
2021/06/04 01:55:51;;;;;;;6.33;4.87;;;16.50;50.40;;;;;;5057256;28;20482;-73
2021/06/04 01:58:35;;;;;;;5.97;5.50;;;16.60;50.60;;;;;;5055215;28;20457;-72
2021/06/04 02:01:14;;;;;;;5.73;5.37;;;16.70;50.60;;;;;;5048409;28;20455;-73
2021/06/04 02:03:49;;;;;;;5.70;5.20;;;16.70;50.70;;;;;;5049934;28;20453;-73
2021/06/04 02:06:24;;;;;;;6.03;5.43;;;16.70;50.80;;;;;;5056502;28;20555;-72
2021/06/04 02:09:00;;;;;;;5.47;5.07;;;16.70;50.90;;;;;;5051973;28;20755;-72
2021/06/04 02:11:36;;;;;;;5.60;5.03;;;16.70;51.00;;;;;;5059303;28;20536;-72
2021/06/04 02:14:15;;;;;;;5.53;5.03;;;16.60;50.90;;;;;;5046368;28;20593;-74
2021/06/04 02:17:09;;;;;;;6.50;5.90;;;16.60;50.80;;;;;;5054799;28;20544;-78
2021/06/04 02:19:56;;;;;;;5.50;5.10;;;16.70;50.90;;;;;;5050538;28;20464;-75
2021/06/04 02:22:32;;;;;;;6.50;5.40;;;16.70;51.00;;;;;;5054071;28;20837;-72
2021/06/04 02:25:15;;;;;;;5.30;4.90;;;16.70;51.10;;;;;;5053459;28;20487;-75
2021/06/04 02:27:55;;;;;;;5.67;5.27;;;16.70;51.20;;;;;;5050131;28;20518;-75
2021/06/04 02:30:36;;;;;;;6.13;5.53;;;16.60;51.30;;;;;;5052148;28;20901;-73
2021/06/04 02:33:16;;;;;;;6.30;5.70;;;16.60;51.50;;;;;;5054958;28;20815;-76
2021/06/04 02:35:56;;;;;;;5.83;5.37;;;16.60;51.40;;;;;;5049890;28;20491;-78
2021/06/04 02:38:38;;;;;;;7.50;5.23;;;16.60;51.50;;;;;;5048982;28;20546;-85
2021/06/04 02:41:19;;;;;;;6.30;5.70;;;16.60;51.60;;;;;;5046805;28;20540;-74
2021/06/04 02:43:56;;;;;;;5.90;5.40;;;16.60;51.60;;;;;;5054529;28;20501;-72
2021/06/04 02:46:35;;;;;;;6.10;5.50;;;16.60;51.70;;;;;;5054270;28;20512;-74
2021/06/04 02:49:13;;;;;;;5.70;5.30;;;16.60;51.80;;;;;;5056627;28;20452;-73
2021/06/04 02:51:59;;;;;;;6.37;5.87;;;16.60;51.60;;;;;;5049022;28;20518;-74
2021/06/04 02:54:36;;;;;;;5.87;5.37;;;16.70;51.60;;;;;;5050646;28;20480;-75
2021/06/04 02:57:14;;;;;;;6.73;5.73;;;16.90;51.20;;;;;;5054411;28;20465;-74
2021/06/04 02:59:51;;;;;;;9.37;4.93;;;16.90;51.20;;;;;;5057381;28;20574;-73
2021/06/04 03:02:31;;;;;;;6.20;5.70;;;17.00;51.30;;;;;;5053508;28;20467;-75
2021/06/04 03:05:11;;;;;;;6.00;5.40;;;17.00;51.20;;;;;;5056665;28;20474;-72
2021/06/04 03:07:47;;;;;;;5.30;5.00;;;16.90;51.10;;;;;;5059953;28;20479;-73
2021/06/04 03:10:29;;;;;;;6.30;5.80;;;17.00;51.30;;;;;;5058550;28;20464;-73
2021/06/04 03:13:05;;;;;;;5.40;5.10;;;17.00;51.40;;;;;;5053102;28;20453;-74
2021/06/04 03:15:43;;;;;;;6.10;5.60;;;17.00;51.30;;;;;;5045087;28;20448;-78
2021/06/04 03:18:22;;;;;;;6.00;5.50;;;16.90;51.20;;;;;;5054239;28;20465;-73
2021/06/04 03:20:58;;;;;;;6.03;5.63;;;17.10;51.10;;;;;;5054095;28;20540;-75
2021/06/04 03:23:40;;;;;;;5.83;5.33;;;17.20;51.00;;;;;;5056652;28;20448;-73
2021/06/04 03:26:20;;;;;;;6.50;5.77;;;17.20;50.90;;;;;;5043919;28;20527;-76
2021/06/04 03:28:56;;;;;;;6.03;5.57;;;17.20;50.90;;;;;;5047708;28;21039;-73
2021/06/04 03:31:33;;;;;;;5.70;5.20;;;17.00;51.00;;;;;;5046696;28;21092;-75
2021/06/04 03:34:11;;;;;;;5.30;4.73;;;16.90;51.00;;;;;;5047253;28;20453;-76
2021/06/04 03:36:48;;;;;;;5.90;4.97;;;16.90;51.10;;;;;;5058477;28;21003;-78
2021/06/04 03:39:27;;;;;;;6.03;5.40;;;16.80;51.00;;;;;;5056746;28;20530;-73
2021/06/04 03:42:03;;;;;;;6.20;5.60;;;16.70;50.90;;;;;;5043490;28;20524;-73
2021/06/04 03:44:42;;;;;;;5.17;4.80;;;16.70;50.90;;;;;;5043166;28;21629;-77
2021/06/04 03:47:17;;;;;;;5.73;5.33;;;16.70;50.80;;;;;;5044054;28;20452;-72
2021/06/04 03:49:53;;;;;;;5.67;5.07;;;16.70;50.80;;;;;;5050516;28;20444;-72
2021/06/04 03:52:29;;;;;;;6.07;5.47;;;16.70;50.90;;;;;;5049581;28;20474;-72
2021/06/04 03:55:08;;;;;;;9.30;5.57;;;16.70;50.90;;;;;;5042754;28;20536;-75
2021/06/04 03:57:45;;;;;;;5.43;4.93;;;16.70;51.00;;;;;;5046822;28;20499;-73
2021/06/04 04:00:24;;;;;;;5.87;5.37;;;16.70;51.10;;;;;;5051005;28;20436;-73
2021/06/04 04:02:59;;;;;;;5.40;5.00;;;16.70;51.20;;;;;;5049704;28;20449;-73
2021/06/04 04:05:35;;;;;;;5.60;4.90;;;16.70;51.20;;;;;;5057794;28;21054;-74
2021/06/04 04:08:12;;;;;;;5.43;5.00;;;16.70;51.20;;;;;;5054309;28;20490;-75
2021/06/04 04:10:46;;;;;;;5.70;5.23;;;16.70;51.20;;;;;;5042649;28;20475;-76
2021/06/04 04:13:23;;;;;;;5.63;5.13;;;16.70;51.10;;;;;;5053397;28;21034;-73
2021/06/04 04:15:59;;;;;;;8.93;5.17;;;16.80;51.30;;;;;;5050238;28;20448;-74
2021/06/04 04:18:34;;;;;;;5.40;5.00;;;16.80;51.20;;;;;;5048121;28;20441;-77
2021/06/04 04:21:13;;;;;;;5.50;5.10;;;16.70;51.20;;;;;;5056089;28;20495;-73
2021/06/04 04:23:52;;;;;;;6.50;5.40;;;16.70;51.40;;;;;;5048118;28;20464;-75
2021/06/04 04:26:30;;;;;;;9.10;4.90;;;16.70;51.50;;;;;;5061699;28;20907;-75
2021/06/04 04:29:06;;;;;;;5.57;5.07;;;16.60;51.40;;;;;;5047041;28;20458;-73
2021/06/04 04:31:45;;;;;;;6.20;5.70;;;16.60;51.40;;;;;;5066206;28;20516;-76
2021/06/04 04:34:20;;;;;;;5.63;5.17;;;16.70;51.50;;;;;;5056743;28;20897;-74
2021/06/04 04:36:58;;;;;;;5.50;5.10;;;16.70;51.40;;;;;;5051625;28;20461;-77
2021/06/04 04:39:36;;;;;;;6.27;5.80;;;16.80;51.40;;;;;;5052363;28;21019;-74
2021/06/04 04:42:15;;;;;;;5.77;5.37;;;16.80;51.50;;;;;;5060075;28;20923;-79
2021/06/04 04:44:50;;;;;;;5.60;5.17;;;16.90;51.50;;;;;;5050018;28;20469;-73
2021/06/04 04:47:26;;;;;;;6.40;5.30;;;16.90;51.50;;;;;;5051096;28;20437;-79
2021/06/04 04:49:59;;;;;;;5.60;5.20;;;17.00;51.30;;;;;;5058500;28;20480;-76
2021/06/04 04:52:35;;;;;;;5.17;4.77;;;17.00;51.20;;;;;;5064464;28;20476;-74
2021/06/04 04:55:10;;;;;;;5.90;5.40;;;17.00;51.30;;;;;;5060453;28;20547;-76
2021/06/04 04:57:45;;;;;;;5.70;5.10;;;17.20;51.50;;;;;;5063752;28;20454;-77
2021/06/04 05:00:24;;;;;;;6.77;5.53;;;17.30;51.40;;;;;;5050919;28;20515;-72
2021/06/04 05:03:00;;;;;;;5.43;5.03;;;17.40;51.30;;;;;;5056547;28;20502;-72
2021/06/04 05:05:37;;;;;;;5.83;5.33;;;17.60;51.10;;;;;;5047994;28;20476;-75
2021/06/04 05:08:36;;;;;;;5.20;4.70;;;17.60;51.10;;;;;;5041149;28;20461;-78
2021/06/04 05:11:12;;;;;;;7.50;5.90;;;17.70;50.90;;;;;;5052011;28;20465;-77
2021/06/04 05:13:47;;;;;;;6.27;5.67;;;17.70;51.00;;;;;;5053193;28;20467;-74
2021/06/04 05:16:22;;;;;;;6.20;5.70;;;17.80;51.10;;;;;;5049282;28;20536;-74
2021/06/04 05:18:57;;;;;;;5.73;5.23;;;17.80;50.90;;;;;;5051501;28;20539;-73
2021/06/04 05:21:33;;;;;;;9.50;5.27;;;17.80;51.10;;;;;;5052648;28;20507;-76
2021/06/04 05:24:08;;;;;;;5.00;4.60;;;18.00;50.90;;;;;;5054081;28;20529;-74
2021/06/04 05:26:45;;;;;;;8.90;4.93;;;18.10;50.90;;;;;;5053956;28;20811;-75
2021/06/04 05:29:19;;;;;;;5.93;5.43;;;18.10;50.70;;;;;;5047647;28;20445;-73
2021/06/04 05:31:54;;;;;;;5.30;4.90;;;18.20;50.50;;;;;;5045696;28;20458;-73
2021/06/04 05:34:29;;;;;;;5.50;5.00;;;18.30;50.80;;;;;;5056885;28;20532;-73
2021/06/04 05:37:04;;;;;;;6.03;4.60;;;18.40;50.50;;;;;;5056605;28;20493;-75
2021/06/04 05:39:38;;;;;;;6.63;5.03;;;18.40;50.50;;;;;;5057398;28;20476;-71
2021/06/04 05:42:15;;;;;;;9.17;5.30;;;18.40;50.50;;;;;;5051821;28;20491;-74
2021/06/04 05:44:50;;;;;;;5.23;4.80;;;18.50;50.50;;;;;;5054351;28;20488;-73
2021/06/04 05:47:24;;;;;;;10.60;5.90;;;18.60;50.40;;;;;;5056599;28;20462;-74
2021/06/04 05:49:59;;;;;;;5.43;4.90;;;18.70;50.40;;;;;;5052728;28;20469;-72
2021/06/04 05:52:34;;;;;;;5.80;5.07;;;18.80;50.30;;;;;;5054083;28;20915;-74
2021/06/04 05:55:11;;;;;;;6.70;5.37;;;18.90;50.30;;;;;;5056648;28;20549;-77
2021/06/04 05:57:47;;;;;;;6.00;5.00;;;19.00;50.20;;;;;;5051249;28;20817;-71
2021/06/04 06:00:25;;;;;;;6.80;5.63;;;19.10;50.20;;;;;;5051788;28;20558;-78
2021/06/04 06:03:01;;;;;;;8.43;5.63;;;19.00;50.10;;;;;;5051476;28;20497;-72
2021/06/04 06:05:36;;;;;;;11.00;5.50;;;19.10;50.40;;;;;;5054828;28;20973;-71
2021/06/04 06:08:11;;;;;;;6.03;5.40;;;19.20;50.10;;;;;;5057455;28;20477;-73
2021/06/04 06:10:46;;;;;;;11.37;5.33;;;19.10;50.10;;;;;;5052495;28;20472;-72
2021/06/04 06:13:34;;;;;;;7.80;5.50;;;19.20;50.20;;;;;;5058957;28;20937;-72
2021/06/04 06:16:10;;;;;;;10.80;5.40;;;19.30;50.20;;;;;;5057980;28;20454;-74
2021/06/04 06:18:45;;;;;;;9.73;6.00;;;19.40;50.20;;;;;;5055012;28;20466;-73
2021/06/04 06:21:20;;;;;;;6.03;5.40;;;19.60;50.00;;;;;;5061889;28;20824;-74
2021/06/04 06:23:54;;;;;;;6.40;5.57;;;19.60;49.80;;;;;;5058607;28;20445;-74
2021/06/04 06:26:32;;;;;;;8.03;6.00;;;19.70;50.00;;;;;;5044189;28;21320;-73
2021/06/04 06:29:11;;;;;;;13.33;6.00;;;19.90;50.00;;;;;;5052535;28;20528;-78
2021/06/04 06:31:48;;;;;;;6.10;5.57;;;20.20;50.10;;;;;;5050338;28;20966;-79
2021/06/04 06:34:24;;;;;;;9.00;6.10;;;20.10;49.70;;;;;;5046039;28;20459;-73
2021/06/04 06:36:59;;;;;;;9.20;5.80;;;20.30;50.20;;;;;;5051539;28;20513;-73
2021/06/04 06:39:36;;;;;;;11.60;6.33;;;20.30;49.70;;;;;;5050450;28;20473;-73
2021/06/04 06:42:12;;;;;;;10.73;5.27;;;20.40;49.80;;;;;;5052189;28;20507;-77
2021/06/04 06:44:48;;;;;;;8.43;5.67;;;20.70;50.10;;;;;;5048363;28;20464;-72
2021/06/04 06:47:22;;;;;;;5.93;5.47;;;20.80;50.00;;;;;;5049745;28;20821;-73
2021/06/04 06:49:55;;;;;;;8.63;5.50;;;20.30;49.70;;;;;;5048701;28;20537;-75
2021/06/04 06:52:30;;;;;;;5.33;4.93;;;20.60;50.10;;;;;;5062024;28;20501;-73
2021/06/04 06:55:06;;;;;;;5.73;5.33;;;20.60;49.70;;;;;;5052566;28;20526;-74
2021/06/04 06:57:40;;;;;;;8.17;5.20;;;20.60;49.70;;;;;;5043802;28;20558;-72
2021/06/04 07:00:23;;;;;;;7.33;6.13;;;20.80;49.80;;;;;;5050925;28;20980;-76
2021/06/04 07:02:58;;;;;;;6.23;5.63;;;20.90;49.70;;;;;;5050886;28;20440;-73
2021/06/04 07:05:34;;;;;;;6.50;4.77;;;21.00;49.60;;;;;;5054204;28;20464;-73
2021/06/04 07:08:10;;;;;;;6.23;5.63;;;21.20;49.60;;;;;;5053565;28;20482;-82
2021/06/04 07:10:45;;;;;;;6.37;5.10;;;21.00;49.60;;;;;;5060576;28;20878;-74
2021/06/04 07:13:26;;;;;;;5.63;5.13;;;20.50;50.20;;;;;;5059842;28;20485;-75
2021/06/04 07:16:07;;;;;;;5.80;5.40;;;19.90;50.40;;;;;;5057851;28;20462;-73
2021/06/04 07:18:44;;;;;;;5.87;5.33;;;20.00;50.90;;;;;;5049088;28;20866;-73
2021/06/04 07:21:21;;;;;;;5.53;5.13;;;20.10;50.90;;;;;;5057631;28;20475;-74
2021/06/04 07:23:56;;;;;;;9.33;5.20;;;20.20;50.60;;;;;;5050548;28;20452;-79
2021/06/04 07:26:32;;;;;;;6.73;6.03;;;20.60;50.60;;;;;;5057957;28;20592;-73
2021/06/04 07:29:06;;;;;;;24.73;5.30;;;21.20;50.50;;;;;;5051383;28;20460;-74
2021/06/04 07:31:43;;;;;;;5.90;5.40;;;21.90;50.50;;;;;;5046684;28;20445;-74
2021/06/04 07:34:19;;;;;;;5.87;5.03;;;23.00;50.00;;;;;;5059931;28;20507;-78
2021/06/04 07:36:56;;;;;;;5.60;5.20;;;22.40;49.70;;;;;;5059840;28;20522;-73
2021/06/04 07:39:34;;;;;;;5.33;4.83;;;23.60;49.50;;;;;;5046097;28;20520;-80
2021/06/04 07:42:11;;;;;;;7.17;5.10;;;22.70;49.40;;;;;;5057482;28;20453;-76
2021/06/04 07:44:47;;;;;;;6.30;4.50;;;23.30;49.80;;;;;;5053326;28;20440;-73
2021/06/04 07:47:23;;;;;;;4.83;4.43;;;23.70;50.00;;;;;;5058387;28;21006;-73
2021/06/04 07:49:57;;;;;;;5.73;5.20;;;23.80;49.80;;;;;;5051363;28;20548;-72
2021/06/04 07:52:32;;;;;;;6.20;5.60;;;23.30;49.30;;;;;;5059832;28;20999;-73
2021/06/04 07:55:08;;;;;;;5.43;5.03;;;22.60;49.70;;;;;;5048456;28;20441;-73
2021/06/04 07:57:42;;;;;;;5.90;5.40;;;22.00;50.50;;;;;;5051189;28;20966;-74
2021/06/04 08:00:26;;;;;;;5.63;5.23;;;21.70;50.90;;;;;;5045403;28;20452;-76
2021/06/04 08:03:04;;;;;;;5.30;5.00;;;20.80;51.10;;;;;;5044941;28;20561;-73
2021/06/04 08:05:40;;;;;;;5.73;5.03;;;20.90;52.00;;;;;;5049231;28;20562;-73
2021/06/04 08:08:15;;;;;;;5.93;5.43;;;20.80;52.00;;;;;;5042598;28;20540;-78
2021/06/04 08:10:50;;;;;;;6.27;5.67;;;21.20;52.60;;;;;;5056239;28;20455;-74
2021/06/04 08:13:26;;;;;;;6.67;5.37;;;21.30;52.40;;;;;;5058288;28;21007;-74
2021/06/04 08:16:03;;;;;;;6.23;5.40;;;21.00;52.40;;;;;;5045959;28;21035;-73
2021/06/04 08:18:41;;;;;;;5.40;5.00;;;21.20;52.80;;;;;;5046490;28;20852;-73
2021/06/04 08:21:18;;;;;;;6.07;5.57;;;21.60;52.50;;;;;;5049130;28;20442;-78
2021/06/04 08:23:53;;;;;;;6.37;5.83;;;21.30;51.90;;;;;;5051694;28;20990;-76
2021/06/04 08:26:31;;;;;;;5.47;5.07;;;21.80;52.20;;;;;;5041354;28;20466;-75
2021/06/04 08:29:08;;;;;;;6.17;5.57;;;21.90;52.20;;;;;;5052396;28;21170;-74
2021/06/04 08:31:43;;;;;;;6.13;5.50;;;22.30;52.30;;;;;;5049941;28;20526;-74
2021/06/04 08:34:19;;;;;;;6.77;6.27;;;22.80;52.00;;;;;;5054569;28;20683;-72
2021/06/04 08:36:54;;;;;;;6.53;5.57;;;23.00;51.30;;;;;;5047704;28;20587;-73
2021/06/04 08:39:32;;;;;;;5.40;4.90;;;22.60;51.60;;;;;;5051667;28;20487;-72
2021/06/04 08:42:22;;;;;;;8.17;5.30;;;23.30;51.20;;;;;;5051238;28;20536;-77
2021/06/04 08:45:11;;;;;;;5.23;4.93;;;23.80;50.90;;;;;;5043733;28;20961;-72
2021/06/04 08:47:52;;;;;;;6.00;5.33;;;22.70;50.80;;;;;;5053074;28;20763;-75
2021/06/04 08:50:38;;;;;;;5.90;5.30;;;22.10;51.30;;;;;;5047458;28;20561;-73
2021/06/04 08:53:23;;;;;;;6.00;5.50;;;22.60;51.90;;;;;;5051132;28;20512;-82
2021/06/04 08:56:05;;;;;;;5.50;5.00;;;22.90;51.90;;;;;;5050997;28;20488;-73
2021/06/04 08:58:52;;;;;;;5.80;5.40;;;24.10;51.40;;;;;;5056069;28;20511;-75
2021/06/04 09:01:31;;;;;;;6.13;5.63;;;25.00;51.10;;;;;;5051023;28;20452;-75
2021/06/04 09:04:11;;;;;;;5.57;5.10;;;25.70;50.30;;;;;;5044284;28;20438;-73
2021/06/04 09:06:50;;;;;;;5.20;4.70;;;25.80;49.70;;;;;;5059091;28;20551;-74
2021/06/04 09:09:31;;;;;;;5.97;5.47;;;26.40;49.40;;;;;;5067175;28;20460;-74
2021/06/04 09:12:09;;;;;;;4.90;4.50;;;26.80;49.10;;;;;;5050416;28;21024;-75
2021/06/04 09:14:44;;;;;;;7.10;5.70;;;26.70;49.10;;;;;;5055658;28;20481;-78
2021/06/04 09:17:33;;;;;;;5.50;5.07;;;25.50;48.50;;;;;;5050832;28;20540;-75
2021/06/04 09:20:17;;;;;;;6.10;5.20;;;25.50;49.40;;;;;;5052794;28;20927;-73
2021/06/04 09:22:58;;;;;;;7.73;6.00;;;25.50;49.30;;;;;;5053182;28;20457;-77
2021/06/04 09:25:35;;;;;;;6.67;5.90;;;25.40;50.60;;;;;;5056651;28;21015;-74
2021/06/04 09:28:28;;;;;;;5.20;4.80;;;25.00;49.40;;;;;;5053121;28;20523;-76
2021/06/04 09:31:20;;;;;;;5.13;4.60;;;25.40;49.70;;;;;;5051705;28;20555;-73
2021/06/04 09:33:56;;;;;;;5.30;4.83;;;26.70;49.10;;;;;;5054151;28;20518;-77
2021/06/04 09:36:45;;;;;;;5.10;4.70;;;27.40;47.10;;;;;;5049789;28;20540;-75
2021/06/04 09:39:39;;;;;;;5.10;4.60;;;27.50;46.80;;;;;;5065308;28;20890;-74
2021/06/04 09:42:25;;;;;;;5.90;4.23;;;28.40;45.90;;;;;;5055573;28;20453;-74
2021/06/04 09:45:07;;;;;;;9.27;4.63;;;28.70;45.60;;;;;;5052112;28;20445;-74
2021/06/04 09:47:44;;;;;;;5.40;4.67;;;28.00;46.50;;;;;;5053136;28;20541;-73
2021/06/04 09:50:31;;;;;;;5.10;4.57;;;26.70;46.90;;;;;;5051795;28;20632;-73
2021/06/04 09:53:13;;;;;;;5.40;4.90;;;27.50;48.20;;;;;;5053610;28;20574;-74
2021/06/04 09:55:50;;;;;;;4.20;3.90;;;26.80;47.20;;;;;;5055023;28;20970;-77
2021/06/04 09:58:31;;;;;;;6.30;5.37;;;27.60;46.60;;;;;;5053813;28;20444;-74
2021/06/04 10:01:18;;;;;;;4.70;4.30;;;28.50;46.10;;;;;;5057328;28;20545;-77
2021/06/04 10:04:00;;;;;;;6.70;4.30;;;28.50;46.10;;;;;;5059605;28;20885;-73
2021/06/04 10:06:49;;;;;;;7.33;4.70;;;28.80;45.70;;;;;;5048119;28;20984;-74
2021/06/04 10:09:37;;;;;;;7.80;4.93;;;28.30;47.00;;;;;;5054259;28;20458;-74
2021/06/04 10:12:32;;;;;;;4.97;4.57;;;29.20;45.70;;;;;;5052651;28;20849;-75
2021/06/04 10:15:26;;;;;;;5.67;4.90;;;28.00;46.30;;;;;;5051378;28;20457;-76
2021/06/04 10:18:04;;;;;;;4.13;3.93;;;27.40;46.50;;;;;;5053145;28;20446;-74
2021/06/04 10:20:45;;;;;;;5.60;3.67;;;28.60;45.80;;;;;;5063353;28;20548;-74
2021/06/04 10:23:26;;;;;;;4.40;3.80;;;28.50;44.10;;;;;;5054999;28;21012;-74
2021/06/04 10:26:04;;;;;;;3.93;3.63;;;29.20;44.70;;;;;;5052361;28;20462;-74
2021/06/04 10:28:46;;;;;;;4.30;4.00;;;29.60;44.40;;;;;;5042159;28;20544;-73
2021/06/04 10:31:45;;;;;;;4.40;4.00;;;29.20;44.00;;;;;;5055723;28;20495;-73
2021/06/04 10:34:37;;;;;;;4.50;4.10;;;29.40;43.90;;;;;;5050331;28;20488;-76
2021/06/04 10:37:18;;;;;;;8.50;4.50;;;28.00;43.60;;;;;;5057326;28;20548;-78
2021/06/04 10:39:58;;;;;;;4.83;4.47;;;27.80;44.60;;;;;;5050064;28;20493;-73
2021/06/04 10:42:40;;;;;;;4.30;4.00;;;27.90;45.30;;;;;;5056130;28;20564;-73
2021/06/04 10:45:21;;;;;;;4.10;3.30;;;26.70;44.80;;;;;;5056290;28;20912;-76
2021/06/04 10:48:20;;;;;;;4.33;3.33;;;27.00;44.10;;;;;;5060733;28;20902;-73
2021/06/04 10:50:58;;;;;;;4.17;3.87;;;27.50;45.30;;;;;;5050050;28;20538;-76
2021/06/04 10:53:41;;;;;;;4.27;3.80;;;27.40;44.20;;;;;;5056259;28;20494;-73
2021/06/04 10:56:21;;;;;;;4.00;3.70;;;26.80;44.00;;;;;;5049567;28;20535;-75
2021/06/04 10:59:03;;;;;;;3.70;3.40;;;26.90;44.50;;;;;;5057032;28;20539;-74
2021/06/04 11:01:47;;;;;;;4.83;4.00;;;27.30;44.30;;;;;;5054247;28;20521;-73
2021/06/04 11:04:26;;;;;;;3.80;3.50;;;27.90;44.40;;;;;;5049541;28;20454;-76
2021/06/04 11:07:14;;;;;;;4.07;3.77;;;27.40;43.50;;;;;;5057248;28;20473;-73
2021/06/04 11:10:11;;;;;;;4.43;4.03;;;27.40;42.40;;;;;;5055539;28;20527;-76
2021/06/04 11:13:07;;;;;;;4.37;3.97;;;27.50;42.70;;;;;;5061362;28;20438;-73
2021/06/04 11:15:54;;;;;;;6.20;4.10;;;27.40;43.00;;;;;;5055104;28;20447;-74
2021/06/04 11:18:44;;;;;;;4.07;3.77;;;27.70;42.60;;;;;;5058483;28;20442;-74
2021/06/04 11:21:34;;;;;;;3.20;2.90;;;27.90;41.80;;;;;;5057899;28;20554;-73
2021/06/04 11:24:14;;;;;;;5.93;3.77;;;27.90;41.70;;;;;;5060825;28;20568;-74
2021/06/04 11:26:51;;;;;;;8.93;3.70;;;27.30;41.10;;;;;;5053913;28;20496;-74
2021/06/04 11:29:30;;;;;;;3.63;3.30;;;27.40;41.90;;;;;;5059893;28;20484;-77
2021/06/04 11:32:12;;;;;;;4.00;3.60;;;27.80;41.90;;;;;;5055305;28;20448;-74
2021/06/04 11:34:59;;;;;;;3.50;3.30;;;28.00;40.90;;;;;;5058820;28;20467;-74
2021/06/04 11:37:42;;;;;;;3.70;3.40;;;28.00;41.00;;;;;;5040823;28;20526;-79
2021/06/04 11:40:20;;;;;;;3.60;3.40;;;28.00;40.70;;;;;;5056527;28;20476;-74
2021/06/04 11:43:01;;;;;;;3.50;3.10;;;27.50;40.10;;;;;;5053450;28;20460;-75
2021/06/04 11:45:38;;;;;;;3.10;2.80;;;27.70;40.30;;;;;;5057075;28;20520;-85
2021/06/04 11:48:41;;;;;;;4.27;3.33;;;27.90;39.40;;;;;;5054603;28;20450;-78
2021/06/04 11:51:53;;;;;;;3.10;2.90;;;28.10;40.40;;;;;;5062331;28;20445;-76
2021/06/04 11:54:40;;;;;;;3.23;3.03;;;28.50;40.40;;;;;;5064633;28;20449;-74
2021/06/04 11:57:30;;;;;;;4.10;2.80;;;29.00;39.60;;;;;;5043031;28;20556;-75
2021/06/04 12:00:24;;;;;;;3.63;3.33;;;29.20;39.70;;;;;;5049399;28;20454;-77
2021/06/04 12:03:14;;;;;;;4.17;2.73;;;29.30;38.70;;;;;;5045226;28;20461;-73
2021/06/04 12:05:52;;;;;;;3.03;2.73;;;29.30;38.00;;;;;;5053835;28;20469;-73
2021/06/04 12:08:49;;;;;;;2.87;2.67;;;29.70;38.20;;;;;;5059936;28;20819;-73
2021/06/04 12:11:34;;;;;;;4.07;2.90;;;29.30;37.20;;;;;;5065720;28;20545;-74
2021/06/04 12:14:23;;;;;;;2.47;2.37;;;29.80;38.30;;;;;;5053307;28;20551;-74
2021/06/04 12:17:29;;;;;;;3.10;2.80;;;30.00;38.30;;;;;;5051236;28;20464;-74
2021/06/04 12:20:39;;;;;;;2.50;2.30;;;29.90;36.90;;;;;;5028218;28;20842;-74
2021/06/04 12:23:36;;;;;;;2.77;2.53;;;29.40;37.80;;;;;;4947441;28;20497;-74
2021/06/04 12:26:12;;;;;;;2.67;2.50;;;29.60;37.80;;;;;;4987289;28;20517;-74
2021/06/04 12:28:46;;;;;;;2.83;2.63;;;28.60;35.90;;;;;;5030966;28;20454;-74
2021/06/04 12:31:53;;;;;;;4.63;2.80;;;28.60;36.50;;;;;;5059595;28;21058;-76
2021/06/04 12:35:01;;;;;;;2.97;2.43;;;28.80;36.80;;;;;;5052280;28;20453;-81
2021/06/04 12:37:39;;;;;;;3.17;2.63;;;28.80;37.30;;;;;;5052811;28;20448;-73
2021/06/04 12:40:36;;;;;;;3.87;2.67;;;28.30;36.70;;;;;;5044931;28;20549;-77
2021/06/04 12:43:21;;;;;;;3.30;2.40;;;28.70;37.70;;;;;;5031853;28;20461;-74
2021/06/04 12:46:05;;;;;;;2.47;2.37;;;29.10;35.90;;;;;;5053848;28;20472;-76
2021/06/04 12:48:46;;;;;;;2.70;2.60;;;29.40;37.30;;;;;;5054498;28;20458;-82
2021/06/04 12:51:23;;;;;;;2.50;2.40;;;29.90;37.30;;;;;;5065018;28;20441;-73
2021/06/04 12:54:10;;;;;;;3.90;2.83;;;30.00;38.00;;;;;;5053170;28;20463;-73
2021/06/04 12:56:50;;;;;;;2.63;2.40;;;30.60;37.40;;;;;;5052853;28;20453;-78
2021/06/04 12:59:29;;;;;;;2.77;2.57;;;30.90;37.00;;;;;;5058021;28;20465;-77
2021/06/04 13:02:17;;;;;;;4.43;3.40;;;31.10;37.30;;;;;;5057738;28;20480;-73
2021/06/04 13:04:55;;;;;;;3.17;2.97;;;31.00;38.00;;;;;;5055381;28;20456;-74
2021/06/04 13:07:34;;;;;;;4.43;4.13;;;30.90;38.00;;;;;;5054671;28;20895;-74
2021/06/04 13:10:20;;;;;;;3.37;3.17;;;31.20;38.00;;;;;;5052986;28;20448;-78
2021/06/04 13:12:58;;;;;;;3.00;2.80;;;31.40;38.10;;;;;;5050747;28;20540;-75
2021/06/04 13:15:34;;;;;;;2.90;2.60;;;30.80;37.70;;;;;;5053210;28;20870;-73
2021/06/04 13:18:12;;;;;;;2.90;2.70;;;30.80;37.90;;;;;;5047634;28;21039;-73
2021/06/04 13:20:50;;;;;;;3.03;2.83;;;30.60;37.70;;;;;;5063849;28;20455;-73
2021/06/04 13:23:28;;;;;;;3.20;2.90;;;30.10;38.00;;;;;;5056783;28;20535;-76
2021/06/04 13:26:21;;;;;;;3.23;3.03;;;29.60;38.80;;;;;;5049832;28;20500;-73
2021/06/04 13:28:56;;;;;;;3.40;3.10;;;29.60;39.10;;;;;;5049557;28;20844;-77
2021/06/04 13:31:35;;;;;;;3.50;3.20;;;29.40;38.80;;;;;;5052649;28;20487;-75
2021/06/04 13:34:31;;;;;;;4.17;2.90;;;29.40;39.00;;;;;;5048269;28;20542;-80
2021/06/04 13:40:37;;;;;;;4.03;3.60;;;28.40;39.70;;;;;;5041014;28;20473;-73
2021/06/04 13:43:06;;;;;;;7.23;3.40;;;28.10;39.60;;;;;;5061143;28;20448;-73
2021/06/04 13:45:38;;;;;;;4.30;4.00;;;28.00;40.00;;;;;;5057087;28;20473;-76
2021/06/04 13:48:10;;;;;;;4.60;3.70;;;27.70;39.60;;;;;;5051749;28;20466;-75
2021/06/04 13:50:49;;;;;;;3.80;3.50;;;27.60;39.80;;;;;;5060241;28;20531;-76
2021/06/04 13:53:50;;;;;;;4.83;3.97;;;27.10;41.40;;;;;;5056314;28;20972;-74
2021/06/04 13:56:35;;;;;;;4.20;3.67;;;26.50;45.10;;;;;;5005417;28;20795;-79